Time;durP1;ratioP1;P1;durP2;ratioP2;P2;SDS_P1;SDS_P2;PMS_P1;PMS_P2;Temp;Humidity;BMP_temperature;BMP_pressure;BME280_temperature;BME280_humidity;BME280_pressure;Samples;Min_cycle;Max_cycle;Signal;HPM_P1;HPM_P2
2022/01/12 00:02:46;;;;;;;20.00;7.93;;;;;;;0.77;93.74;102959.66;6073188;28;20035;-73
2022/01/12 00:05:43;;;;;;;21.97;7.53;;;;;;;0.78;93.92;102966.59;6073285;28;20039;-73
2022/01/12 00:08:38;;;;;;;24.58;7.20;;;;;;;0.80;93.77;102961.34;6073979;28;20029;-73
2022/01/12 00:11:37;;;;;;;18.60;6.80;;;;;;;0.85;93.17;102968.19;6072159;28;20039;-73
2022/01/12 00:14:32;;;;;;;18.23;7.13;;;;;;;0.85;93.50;102965.59;6073853;28;20343;-73
2022/01/12 00:17:27;;;;;;;21.97;7.00;;;;;;;0.87;93.43;102966.41;6072789;28;20037;-72
2022/01/12 00:20:23;;;;;;;26.33;7.20;;;;;;;0.92;93.21;102964.59;6072416;28;20793;-73
2022/01/12 00:23:18;;;;;;;21.73;7.35;;;;;;;0.97;93.22;102967.13;6073465;28;20495;-73
2022/01/12 00:35:57;;;;;;;19.85;6.45;;;;;;;1.03;92.57;102957.38;6065362;28;20029;-73
2022/01/12 00:38:52;;;;;;;21.00;6.82;;;;;;;1.07;92.42;102956.44;6073093;28;20036;-73
2022/01/12 00:41:48;;;;;;;19.50;6.60;;;;;;;1.07;92.02;102953.84;6072151;28;20037;-73
2022/01/12 00:44:46;;;;;;;18.05;6.65;;;;;;;1.06;92.41;102952.09;6072316;28;20115;-73
2022/01/12 00:47:41;;;;;;;17.25;5.20;;;;;;;1.05;92.04;102949.53;6073002;28;20124;-73
2022/01/12 00:50:37;;;;;;;16.23;6.73;;;;;;;1.07;92.13;102943.41;6072035;28;20029;-72
2022/01/12 00:53:32;;;;;;;21.23;7.35;;;;;;;1.11;92.47;102937.19;6072275;28;20032;-73
2022/01/12 00:56:28;;;;;;;15.70;5.97;;;;;;;1.15;91.65;102941.47;6060113;28;20045;-73
2022/01/12 00:59:23;;;;;;;20.42;5.82;;;;;;;1.15;92.02;102924.94;6072491;28;20435;-73
2022/01/12 01:02:18;;;;;;;15.70;6.03;;;;;;;1.17;91.76;102928.38;6072123;28;20034;-73
2022/01/12 01:05:19;;;;;;;13.07;5.27;;;;;;;1.22;91.34;102933.53;6072177;28;20032;-73
2022/01/12 01:08:14;;;;;;;23.45;6.10;;;;;;;1.22;91.10;102928.31;6073460;28;20026;-72
2022/01/12 01:11:10;;;;;;;15.60;6.10;;;;;;;1.21;91.13;102927.44;6071453;28;20079;-73
2022/01/12 01:14:20;;;;;;;13.45;5.90;;;;;;;1.25;91.19;102936.91;6073021;28;20430;-73
2022/01/12 01:25:29;;;;;;;16.00;6.07;;;;;;;1.28;90.67;102936.84;6051615;28;20120;-72
2022/01/12 01:27:02;;;;;;;15.05;5.05;;;;;;;1.19;91.08;102948.38;6071161;28;20038;-73
2022/01/12 01:29:57;;;;;;;12.90;4.63;;;;;;;1.22;90.66;102949.22;6072602;28;20026;-73
2022/01/12 01:32:53;;;;;;;11.97;4.73;;;;;;;1.20;90.25;102963.16;6072127;28;20037;-73
2022/01/12 01:35:54;;;;;;;12.95;4.72;;;;;;;1.20;90.86;102965.75;6075154;28;20079;-73
2022/01/12 01:38:49;;;;;;;17.95;6.00;;;;;;;1.19;90.80;102964.06;6074962;28;20028;-73
2022/01/12 01:41:58;;;;;;;13.30;5.93;;;;;;;1.18;90.98;102956.22;6076703;28;20037;-73
2022/01/12 01:54:18;;;;;;;16.77;6.20;;;;;;;1.26;90.86;102964.78;6073860;28;20045;-74
2022/01/12 01:57:13;;;;;;;15.70;5.80;;;;;;;1.30;90.67;102960.34;6076874;28;20515;-73
2022/01/12 02:00:12;;;;;;;13.47;4.90;;;;;;;1.30;90.87;102962.97;6074553;28;20025;-73
2022/01/12 02:03:07;;;;;;;13.93;5.50;;;;;;;1.29;90.54;102969.06;6076082;28;20029;-73
2022/01/12 02:06:07;;;;;;;16.17;6.03;;;;;;;1.34;90.28;102973.31;6075644;28;20036;-73
2022/01/12 02:09:02;;;;;;;14.57;4.93;;;;;;;1.31;89.83;102983.84;6076326;28;20271;-73
2022/01/12 02:11:58;;;;;;;14.80;4.47;;;;;;;1.41;89.46;102981.91;6062406;28;20025;-73
2022/01/12 02:14:56;;;;;;;11.27;4.20;;;;;;;1.44;89.91;102997.53;6074977;28;20079;-73
2022/01/12 02:40:46;;;;;;;12.15;3.80;;;;;;;1.58;88.68;103003.31;6074672;28;20112;-74
2022/01/12 02:50:37;;;;;;;12.90;4.20;;;;;;;1.55;89.22;103000.78;6070274;28;20112;-73
2022/01/12 02:53:43;;;;;;;12.52;3.83;;;;;;;1.44;88.64;102992.31;6073160;28;20131;-73
2022/01/12 02:56:38;;;;;;;12.60;4.57;;;;;;;1.46;88.69;102987.91;6061937;28;20078;-74
2022/01/12 02:59:33;;;;;;;12.40;3.70;;;;;;;1.47;88.36;102989.63;6074737;28;20037;-73
2022/01/12 03:02:34;;;;;;;10.95;3.88;;;;;;;1.50;88.39;102994.75;6074266;28;20435;-74
2022/01/12 03:05:34;;;;;;;11.50;3.83;;;;;;;1.49;88.70;102990.44;6075055;28;20033;-74
2022/01/12 03:08:36;;;;;;;11.80;3.80;;;;;;;1.55;88.48;102992.94;6075177;28;20159;-74
2022/01/12 03:11:32;;;;;;;11.52;4.85;;;;;;;1.48;88.18;102981.75;6074053;28;20040;-74
2022/01/12 03:14:27;;;;;;;8.77;3.60;;;;;;;1.47;87.41;102981.78;6072777;28;20033;-74
2022/01/12 03:17:23;;;;;;;6.83;3.53;;;;;;;1.47;87.95;102979.16;6074216;28;20041;-74
2022/01/12 03:20:18;;;;;;;12.03;4.37;;;;;;;1.45;87.92;102975.72;6074349;28;20523;-74
2022/01/12 03:23:14;;;;;;;11.17;3.90;;;;;;;1.52;87.74;102983.38;6074023;28;20029;-74
2022/01/12 03:26:10;;;;;;;12.02;4.13;;;;;;;1.54;87.37;102980.75;6074949;28;20072;-73
2022/01/12 03:29:05;;;;;;;15.70;3.92;;;;;;;1.56;87.17;102984.19;6072761;28;20571;-74
2022/01/12 03:32:02;;;;;;;15.43;4.15;;;;;;;1.58;87.24;102979.78;6073980;28;20668;-74
2022/01/12 03:35:07;;;;;;;9.50;3.67;;;;;;;1.61;86.98;102972.72;6074079;28;20545;-74
2022/01/12 03:38:20;;;;;;;11.13;4.15;;;;;;;1.65;86.64;102981.38;6064343;28;20038;-74
2022/01/12 03:41:16;;;;;;;11.90;3.90;;;;;;;1.65;86.80;102978.78;6061080;28;20045;-73
2022/01/12 03:44:13;;;;;;;10.77;4.05;;;;;;;1.68;86.68;102978.72;6067014;28;20408;-74
2022/01/12 03:47:08;;;;;;;8.73;2.90;;;;;;;1.70;86.45;102971.69;6073246;28;20075;-74
2022/01/12 03:50:04;;;;;;;15.87;3.77;;;;;;;1.75;85.75;102964.59;6072760;28;20030;-74
2022/01/12 03:52:59;;;;;;;9.48;3.78;;;;;;;1.78;85.84;102967.13;6073495;28;20033;-73
2022/01/12 03:55:54;;;;;;;8.27;3.47;;;;;;;1.79;85.72;102971.47;6073099;28;20037;-74
2022/01/12 03:58:49;;;;;;;11.40;3.90;;;;;;;1.77;85.96;102978.47;6060037;28;20033;-74
2022/01/12 04:01:45;;;;;;;9.63;3.53;;;;;;;1.79;86.04;102966.25;6059809;28;20499;-75
2022/01/12 04:05:05;;;;;;;7.70;3.23;;;;;;;1.82;84.81;102963.56;6061520;28;20120;-71
2022/01/12 04:11:09;;;;;;;11.07;3.55;;;;;;;1.82;84.63;102971.41;6072204;28;20431;-72
2022/01/12 04:14:05;;;;;;;9.50;3.37;;;;;;;1.80;85.19;102965.34;6073702;28;20041;-73
2022/01/12 04:17:01;;;;;;;8.88;3.63;;;;;;;1.79;84.99;102961.03;6073776;28;20033;-75
2022/01/12 04:19:56;;;;;;;10.23;3.72;;;;;;;1.88;84.54;102965.16;6071446;28;20033;-73
2022/01/12 04:26:12;;;;;;;7.55;3.08;;;;;;;1.93;84.64;102969.38;6073747;28;20272;-74
2022/01/12 04:29:07;;;;;;;8.48;3.40;;;;;;;1.89;84.55;102975.59;6073069;28;20397;-74
2022/01/12 04:32:03;;;;;;;8.23;3.33;;;;;;;1.94;84.92;102973.72;6072474;28;20065;-74
2022/01/12 04:34:59;;;;;;;10.43;3.78;;;;;;;1.95;84.07;102983.31;6073461;28;20100;-73
2022/01/12 04:37:54;;;;;;;7.97;3.55;;;;;;;1.90;84.58;102995.66;6071872;28;20511;-74
2022/01/12 04:40:49;;;;;;;8.57;3.70;;;;;;;1.89;85.40;102991.28;6072314;28;20033;-73
2022/01/12 04:43:45;;;;;;;8.80;3.55;;;;;;;1.86;84.82;102983.50;6072919;28;20041;-74
2022/01/12 04:46:52;;;;;;;7.67;2.83;;;;;;;1.86;84.79;102973.06;6071034;28;20092;-73
2022/01/12 04:49:47;;;;;;;7.70;3.22;;;;;;;1.84;85.41;102974.84;6062297;28;20040;-75
2022/01/12 04:52:43;;;;;;;10.82;4.35;;;;;;;1.88;85.37;102976.47;6072475;28;20392;-74
2022/01/12 04:55:39;;;;;;;9.20;3.97;;;;;;;1.91;84.55;102973.81;6050321;28;20103;-75
2022/01/12 04:58:34;;;;;;;9.25;2.92;;;;;;;1.97;84.06;102985.88;6049383;28;20099;-74
2022/01/12 05:01:35;;;;;;;9.10;3.58;;;;;;;1.94;84.47;102986.81;6048933;28;20462;-74
2022/01/12 05:07:57;;;;;;;11.38;3.17;;;;;;;1.99;84.68;102992.81;6065249;28;20427;-75
2022/01/12 05:14:11;;;;;;;8.05;3.22;;;;;;;1.91;84.46;102994.72;6078267;28;20037;-75
2022/01/12 05:17:06;;;;;;;8.18;3.28;;;;;;;1.93;85.24;102999.94;6077346;28;20041;-74
2022/01/12 05:20:03;;;;;;;12.20;3.50;;;;;;;1.95;84.77;103004.25;6075343;28;20467;-74
2022/01/12 05:22:58;;;;;;;10.27;3.60;;;;;;;2.01;84.48;103006.69;6077798;28;20700;-74
2022/01/12 05:25:53;;;;;;;9.40;3.23;;;;;;;2.03;84.80;103002.31;6076946;28;20046;-74
2022/01/12 05:28:49;;;;;;;9.05;3.35;;;;;;;2.00;83.96;103004.13;6077636;28;20029;-74
2022/01/12 05:31:44;;;;;;;6.90;3.13;;;;;;;2.02;84.65;103010.19;6074910;28;20034;-74
2022/01/12 05:34:41;;;;;;;9.87;3.57;;;;;;;1.99;84.89;103012.84;6074033;28;20032;-74
2022/01/12 05:37:36;;;;;;;10.45;3.42;;;;;;;2.05;84.87;103024.06;6075711;28;20041;-74
2022/01/12 05:40:31;;;;;;;12.47;4.03;;;;;;;2.00;84.63;103025.94;6057010;28;20040;-73
2022/01/12 05:43:29;;;;;;;9.45;3.17;;;;;;;2.00;84.51;103023.31;6069010;28;20284;-75
2022/01/12 05:46:27;;;;;;;7.45;3.15;;;;;;;1.99;85.05;103037.28;6075274;28;20033;-75
2022/01/12 05:49:34;;;;;;;7.47;3.22;;;;;;;2.03;84.66;103036.31;6070429;28;20029;-74
2022/01/12 05:52:30;;;;;;;8.50;3.10;;;;;;;2.07;85.01;103039.72;6061404;28;20397;-74
2022/01/12 05:55:25;;;;;;;9.20;3.00;;;;;;;2.08;84.83;103031.84;6076825;28;20049;-74
2022/01/12 05:58:20;;;;;;;8.93;3.37;;;;;;;2.05;84.93;103021.44;6076606;28;20468;-75
2022/01/12 06:01:17;;;;;;;8.83;3.47;;;;;;;2.01;84.85;103030.25;6075034;28;20041;-74
2022/01/12 06:04:12;;;;;;;8.85;3.20;;;;;;;2.01;85.54;103025.00;6076390;28;20635;-75
2022/01/12 06:07:07;;;;;;;10.93;3.40;;;;;;;1.96;85.63;103021.63;6075530;28;20038;-73
2022/01/12 06:10:03;;;;;;;7.45;3.35;;;;;;;1.96;85.34;103016.41;6072686;28;20029;-74
2022/01/12 06:12:58;;;;;;;10.82;3.38;;;;;;;1.94;86.31;103028.66;6073003;28;20044;-74
2022/01/12 06:15:54;;;;;;;13.00;4.40;;;;;;;1.97;85.98;103033.84;6076247;28;20528;-73
2022/01/12 06:18:49;;;;;;;10.32;4.28;;;;;;;2.05;86.70;103039.75;6071638;28;20029;-75
2022/01/12 06:21:44;;;;;;;11.70;4.67;;;;;;;2.10;87.07;103040.50;6070028;28;20069;-74
2022/01/12 06:24:40;;;;;;;15.65;5.72;;;;;;;2.05;86.72;103042.38;6076015;28;20036;-74
2022/01/12 06:27:36;;;;;;;16.50;5.80;;;;;;;2.12;87.35;103033.47;6061867;28;20087;-74
2022/01/12 06:33:47;;;;;;;13.43;5.60;;;;;;;2.03;88.01;103027.59;6069169;28;20109;-74
2022/01/12 06:36:42;;;;;;;16.42;6.53;;;;;;;2.04;88.79;103029.34;6075286;28;20041;-74
2022/01/12 06:39:38;;;;;;;17.50;6.60;;;;;;;1.98;89.37;103032.97;6074749;28;20040;-74
2022/01/12 06:42:33;;;;;;;17.73;6.68;;;;;;;2.06;89.44;103043.25;6070764;28;20114;-73
2022/01/12 06:45:29;;;;;;;16.43;6.47;;;;;;;1.98;89.14;103035.56;6071664;28;20033;-74
2022/01/12 06:48:24;;;;;;;15.93;6.97;;;;;;;1.98;89.99;103038.19;6065244;28;20117;-74
2022/01/12 06:51:20;;;;;;;15.75;6.20;;;;;;;1.97;90.23;103033.84;6064180;28;20030;-74
2022/01/12 06:54:18;;;;;;;15.90;6.30;;;;;;;1.99;89.71;103034.66;6060605;28;20040;-75
2022/01/12 06:57:13;;;;;;;19.65;6.50;;;;;;;2.01;90.42;103032.84;6068241;28;20674;-74
2022/01/12 07:00:09;;;;;;;14.73;6.57;;;;;;;2.08;89.93;103036.22;6073252;28;20025;-74
2022/01/12 07:03:04;;;;;;;14.57;5.53;;;;;;;2.01;89.51;103040.72;6074347;28;20076;-74
2022/01/12 07:06:00;;;;;;;17.00;6.00;;;;;;;2.04;89.99;103048.50;6074609;28;20503;-75
2022/01/12 07:08:55;;;;;;;20.20;7.15;;;;;;;2.06;89.37;103053.72;6075334;28;20607;-75
2022/01/12 07:11:51;;;;;;;15.70;6.35;;;;;;;2.05;89.95;103049.34;6071236;28;20655;-74
2022/01/12 07:14:47;;;;;;;13.10;5.73;;;;;;;2.01;89.24;103061.63;6073626;28;20044;-74
2022/01/12 07:17:42;;;;;;;10.25;5.18;;;;;;;2.09;89.36;103067.56;6073988;28;20272;-74
2022/01/12 07:20:37;;;;;;;17.35;5.85;;;;;;;2.14;89.15;103073.59;6073520;28;20416;-74
2022/01/12 07:23:33;;;;;;;13.93;6.00;;;;;;;2.13;88.89;103070.97;6074476;28;20033;-74
2022/01/12 07:26:28;;;;;;;14.18;6.07;;;;;;;2.15;88.65;103079.66;6067192;28;20035;-73
2022/01/12 07:29:23;;;;;;;20.13;6.30;;;;;;;2.17;88.96;103094.44;6067233;28;20037;-75
2022/01/12 07:32:19;;;;;;;14.37;5.53;;;;;;;2.16;89.47;103092.72;6072199;28;20072;-73
2022/01/12 07:35:14;;;;;;;14.17;6.27;;;;;;;2.12;89.13;103091.06;6072901;28;20355;-73
2022/01/12 07:38:09;;;;;;;13.90;5.53;;;;;;;2.13;89.54;103095.41;6074743;28;20033;-73
2022/01/12 07:41:05;;;;;;;9.70;4.90;;;;;;;2.11;89.37;103099.81;6062986;28;20121;-73
2022/01/12 07:44:00;;;;;;;13.40;5.17;;;;;;;2.14;88.97;103104.97;6073801;28;20042;-73
2022/01/12 07:46:56;;;;;;;10.82;4.78;;;;;;;2.06;88.68;103111.28;6063276;28;20025;-73
2022/01/12 07:49:52;;;;;;;13.82;6.10;;;;;;;2.14;88.28;103110.22;6066334;28;20071;-73
2022/01/12 07:52:48;;;;;;;19.00;5.03;;;;;;;2.18;88.18;103106.63;6072929;28;20062;-74
2022/01/12 07:55:43;;;;;;;13.15;5.40;;;;;;;2.24;87.80;103110.88;6058011;28;20041;-74
2022/01/12 07:58:39;;;;;;;14.50;6.10;;;;;;;2.15;88.55;103116.28;6071047;28;20492;-73
2022/01/12 08:01:34;;;;;;;16.17;5.73;;;;;;;2.16;87.97;103118.88;6071748;28;20033;-73
2022/01/12 08:04:29;;;;;;;15.43;6.17;;;;;;;2.13;88.74;103121.56;6067685;28;20033;-73
2022/01/12 08:07:24;;;;;;;17.27;6.87;;;;;;;2.19;88.76;103118.81;6069082;28;20095;-72
2022/01/12 08:10:20;;;;;;;15.83;7.03;;;;;;;2.23;89.20;103117.84;6049459;28;20485;-72
2022/01/12 08:13:15;;;;;;;21.48;10.05;;;;;;;2.22;88.62;103129.22;6059085;28;20029;-73
2022/01/12 08:16:11;;;;;;;15.87;6.40;;;;;;;2.22;88.82;103134.47;6072588;28;20056;-72
2022/01/12 08:19:06;;;;;;;17.15;7.78;;;;;;;2.27;88.84;103127.38;6073317;28;20025;-73
2022/01/12 08:22:02;;;;;;;20.40;7.50;;;;;;;2.27;88.55;103126.50;6065092;28;20063;-73
2022/01/12 08:24:58;;;;;;;16.73;6.88;;;;;;;2.27;88.42;103137.84;6073633;28;20389;-73
2022/01/12 08:27:53;;;;;;;19.83;7.10;;;;;;;2.31;89.09;103136.88;6061318;28;20033;-73
2022/01/12 08:30:48;;;;;;;17.60;6.50;;;;;;;2.42;88.74;103146.25;6072103;28;20314;-73
2022/01/12 08:33:44;;;;;;;18.27;6.77;;;;;;;2.43;88.71;103151.44;6073022;28;20029;-73
2022/01/12 08:36:41;;;;;;;18.27;7.05;;;;;;;2.42;89.04;103152.31;6071651;28;20369;-73
2022/01/12 08:39:36;;;;;;;18.02;8.50;;;;;;;2.42;89.04;103154.13;6072945;28;20465;-73
2022/01/12 08:42:32;;;;;;;18.37;7.80;;;;;;;2.42;89.85;103141.03;6072599;28;20041;-73
2022/01/12 08:45:27;;;;;;;21.05;7.88;;;;;;;2.60;89.50;103151.06;6066275;28;20747;-74
2022/01/12 08:48:22;;;;;;;19.83;8.00;;;;;;;2.54;88.49;103156.44;6063721;28;20041;-73
2022/01/12 08:51:18;;;;;;;18.80;8.40;;;;;;;2.54;88.93;103151.19;6066090;28;20036;-73
2022/01/12 08:54:13;;;;;;;25.03;10.47;;;;;;;2.62;89.21;103149.28;6061470;28;20595;-73
2022/01/12 08:57:09;;;;;;;22.17;9.63;;;;;;;2.53;89.54;103150.34;6064306;28;20120;-72
2022/01/12 09:00:06;;;;;;;26.77;10.25;;;;;;;2.53;89.63;103149.50;6071708;28;20503;-74
2022/01/12 09:03:02;;;;;;;24.33;9.50;;;;;;;2.53;90.43;103144.25;6071447;28;20045;-74
2022/01/12 09:05:57;;;;;;;23.85;10.38;;;;;;;2.61;90.63;103156.25;6070232;28;20060;-74
2022/01/12 09:08:52;;;;;;;25.30;10.68;;;;;;;2.62;90.57;103154.50;6067770;28;20595;-74
2022/01/12 09:11:48;;;;;;;22.70;10.00;;;;;;;2.67;90.97;103152.63;6068595;28;20107;-74
2022/01/12 09:14:44;;;;;;;24.02;10.00;;;;;;;2.64;91.53;103150.94;6071475;28;20083;-75
2022/01/12 09:17:41;;;;;;;24.70;12.32;;;;;;;2.63;91.50;103153.63;6072492;28;20378;-74
2022/01/12 09:20:36;;;;;;;33.33;12.07;;;;;;;2.59;91.41;103159.81;6071496;28;20073;-75
2022/01/12 09:23:32;;;;;;;26.60;12.65;;;;;;;2.64;92.62;103168.41;6064463;28;20087;-74
2022/01/12 09:26:27;;;;;;;39.38;13.75;;;;;;;2.60;92.83;103175.50;6071343;28;20036;-74
2022/01/12 09:29:23;;;;;;;28.43;12.73;;;;;;;2.64;92.15;103182.38;6072365;28;20037;-75
2022/01/12 09:32:19;;;;;;;35.92;15.05;;;;;;;2.60;92.66;103183.38;6069212;28;20542;-73
2022/01/12 09:35:14;;;;;;;32.00;13.00;;;;;;;2.63;92.57;103185.06;6071939;28;20033;-73
2022/01/12 09:38:09;;;;;;;31.83;12.18;;;;;;;2.65;93.59;103185.88;6070123;28;20037;-73
2022/01/12 09:41:05;;;;;;;32.10;12.17;;;;;;;2.67;93.11;103190.16;6069532;28;20041;-74
2022/01/12 09:44:01;;;;;;;28.30;12.47;;;;;;;2.70;93.18;103192.72;6071391;28;20149;-74
2022/01/12 09:46:58;;;;;;;37.00;13.70;;;;;;;2.71;93.37;103193.59;6061534;28;20037;-74
2022/01/12 09:49:53;;;;;;;32.65;12.82;;;;;;;2.68;93.52;103188.41;6072571;28;20040;-75
2022/01/12 09:52:50;;;;;;;39.70;14.23;;;;;;;2.65;93.90;103191.97;6071174;28;20370;-73
2022/01/12 09:55:46;;;;;;;28.30;13.13;;;;;;;2.55;94.18;103194.84;6072732;28;20041;-73
2022/01/12 09:58:41;;;;;;;35.60;14.40;;;;;;;2.57;94.76;103196.53;6072511;28;20044;-72
2022/01/12 10:01:45;;;;;;;44.63;15.77;;;;;;;2.47;94.24;103199.38;6068862;28;20033;-72
2022/01/12 10:04:40;;;;;;;37.63;14.70;;;;;;;2.47;95.06;103202.00;6075680;28;20499;-72
2022/01/12 10:07:36;;;;;;;43.13;15.10;;;;;;;2.53;95.20;103207.09;6075799;28;20037;-72
2022/01/12 10:10:32;;;;;;;38.42;16.10;;;;;;;2.58;95.17;103197.38;6075042;28;20030;-73
2022/01/12 10:13:27;;;;;;;43.30;16.07;;;;;;;2.58;96.11;103205.25;6074819;28;20048;-74
2022/01/12 10:16:26;;;;;;;41.97;15.13;;;;;;;2.61;95.84;103205.19;6073302;28;20053;-73
2022/01/12 10:19:31;;;;;;;42.42;16.85;;;;;;;2.59;95.81;103199.97;6073716;28;20400;-73
2022/01/12 10:22:26;;;;;;;42.63;15.13;;;;;;;2.65;96.51;103201.59;6072032;28;20037;-74
2022/01/12 10:25:21;;;;;;;44.40;16.07;;;;;;;2.67;95.69;103192.78;6065553;28;20065;-74
2022/01/12 10:28:20;;;;;;;47.65;17.52;;;;;;;2.64;95.89;103186.75;6072212;28;20473;-73
2022/01/12 10:31:15;;;;;;;39.53;16.55;;;;;;;2.63;96.09;103182.44;6074094;28;20029;-73
2022/01/12 10:34:11;;;;;;;46.20;17.57;;;;;;;2.67;96.40;103191.94;6075378;28;20703;-73
2022/01/12 10:37:12;;;;;;;46.88;17.58;;;;;;;2.63;96.39;103192.91;6075866;28;20029;-73
2022/01/12 10:40:09;;;;;;;50.00;18.15;;;;;;;2.64;96.75;103185.00;6073839;28;20064;-73
2022/01/12 10:43:05;;;;;;;51.92;17.50;;;;;;;2.63;96.65;103182.44;6072933;28;20033;-74
2022/01/12 10:46:03;;;;;;;48.70;16.77;;;;;;;2.66;96.92;103183.22;6074282;28;20550;-73
2022/01/12 10:48:58;;;;;;;61.10;19.45;;;;;;;2.70;96.62;103178.75;6074405;28;20048;-73
2022/01/12 10:51:55;;;;;;;52.70;18.98;;;;;;;2.67;96.43;103170.97;6069985;28;20026;-74
2022/01/12 10:54:53;;;;;;;60.33;19.50;;;;;;;2.67;96.91;103179.69;6068603;28;20619;-74
2022/01/12 10:57:48;;;;;;;48.88;17.30;;;;;;;2.67;96.83;103178.81;6067402;28;20034;-74
2022/01/12 11:00:45;;;;;;;49.37;18.43;;;;;;;2.77;96.42;103180.38;6069258;28;20030;-75
2022/01/12 11:03:41;;;;;;;45.75;17.40;;;;;;;2.71;97.44;103190.97;6073410;28;20060;-74
2022/01/12 11:06:37;;;;;;;54.50;18.92;;;;;;;2.81;97.29;103182.88;6072261;28;20033;-74
2022/01/12 11:09:32;;;;;;;58.25;19.83;;;;;;;2.86;96.92;103190.59;6071269;28;20036;-74
2022/01/12 11:12:28;;;;;;;50.05;16.55;;;;;;;2.93;96.40;103192.22;6066099;28;20029;-73
2022/01/12 11:15:24;;;;;;;54.15;18.50;;;;;;;2.88;97.13;103217.66;6067832;28;20159;-73
2022/01/12 11:18:21;;;;;;;55.45;19.15;;;;;;;2.87;96.94;103202.81;6072277;28;20075;-73
2022/01/12 11:21:28;;;;;;;49.95;17.48;;;;;;;2.94;97.29;103200.00;6059739;28;20083;-72
2022/01/12 11:24:27;;;;;;;46.03;17.60;;;;;;;2.95;97.41;103212.22;6073835;28;20045;-73
2022/01/12 11:27:23;;;;;;;48.78;18.42;;;;;;;2.93;96.85;103210.56;6066314;28;20030;-72
2022/01/12 11:30:21;;;;;;;44.75;17.65;;;;;;;2.96;96.71;103203.47;6069309;28;20029;-72
2022/01/12 11:33:21;;;;;;;45.50;17.50;;;;;;;2.97;96.30;103201.69;6072527;28;20034;-72
2022/01/12 11:36:22;;;;;;;54.20;18.23;;;;;;;3.07;97.04;103205.84;6072357;28;20041;-72
2022/01/12 11:39:17;;;;;;;39.50;16.58;;;;;;;3.18;96.99;103202.97;6073007;28;20395;-73
2022/01/12 11:42:13;;;;;;;44.03;16.35;;;;;;;3.27;96.83;103206.19;6072846;28;20047;-73
2022/01/12 11:45:19;;;;;;;51.78;18.75;;;;;;;3.38;96.42;103209.44;6072479;28;20029;-72
2022/01/12 11:48:14;;;;;;;49.85;17.30;;;;;;;3.42;96.72;103202.34;6068494;28;20041;-72
2022/01/12 11:51:10;;;;;;;43.13;15.63;;;;;;;3.44;96.12;103203.16;6072064;28;20048;-72
2022/01/12 11:54:18;;;;;;;41.53;16.83;;;;;;;3.50;95.90;103206.50;6066474;28;20044;-73
2022/01/12 11:57:18;;;;;;;46.60;15.90;;;;;;;3.52;95.61;103209.94;6072452;28;20122;-72
2022/01/12 12:00:19;;;;;;;47.03;16.30;;;;;;;3.50;96.00;103198.63;6072020;28;20452;-72
2022/01/12 12:03:18;;;;;;;42.78;15.45;;;;;;;3.57;95.95;103212.44;6062267;28;20029;-73
2022/01/12 12:06:19;;;;;;;45.72;18.60;;;;;;;3.50;96.06;103201.25;6073441;28;20040;-73
2022/01/12 12:09:18;;;;;;;49.83;17.25;;;;;;;3.60;96.00;103197.47;6072676;28;20032;-73
2022/01/12 12:12:16;;;;;;;44.67;15.30;;;;;;;3.69;95.72;103198.13;6058149;28;20108;-73
2022/01/12 12:15:11;;;;;;;41.42;15.63;;;;;;;3.68;95.56;103194.66;6068692;28;20083;-73
2022/01/12 12:18:07;;;;;;;48.30;17.42;;;;;;;3.64;95.29;103197.41;6072188;28;20477;-73
2022/01/12 12:21:02;;;;;;;44.53;17.80;;;;;;;3.70;95.34;103187.59;6066589;28;20094;-73
2022/01/12 12:24:14;;;;;;;41.67;15.57;;;;;;;3.65;94.26;103180.75;6070420;28;20319;-73
2022/01/12 12:27:11;;;;;;;49.83;16.70;;;;;;;3.66;94.23;103180.72;6064484;28;20044;-73
2022/01/12 12:30:12;;;;;;;42.40;15.27;;;;;;;3.71;94.78;103181.47;6072480;28;20044;-73
2022/01/12 12:33:08;;;;;;;45.50;17.88;;;;;;;3.68;93.61;103191.16;6069397;28;20045;-73
2022/01/12 12:36:04;;;;;;;51.38;16.73;;;;;;;3.60;93.99;103187.00;6069463;28;20111;-73
2022/01/12 12:39:08;;;;;;;49.17;17.85;;;;;;;3.59;94.33;103187.88;6071555;28;20039;-73
2022/01/12 12:42:12;;;;;;;46.00;18.05;;;;;;;3.59;93.43;103179.16;6072382;28;20041;-73
2022/01/12 12:45:08;;;;;;;46.67;17.38;;;;;;;3.58;93.41;103178.31;6069943;28;20033;-73
2022/01/12 12:48:05;;;;;;;43.72;14.63;;;;;;;3.56;93.71;103187.13;6062080;28;20041;-73
2022/01/12 12:51:11;;;;;;;38.75;14.82;;;;;;;3.54;93.01;103186.28;6065029;28;20469;-73
2022/01/12 12:54:06;;;;;;;40.88;14.70;;;;;;;3.48;93.56;103187.28;6058197;28;20619;-73
2022/01/12 12:57:10;;;;;;;41.77;13.83;;;;;;;3.48;93.82;103199.53;6071924;28;20033;-73
2022/01/12 13:00:13;;;;;;;38.97;14.38;;;;;;;3.49;93.74;103206.53;6055179;28;20500;-73
2022/01/12 13:03:08;;;;;;;41.45;13.55;;;;;;;3.36;94.30;103186.75;6062775;28;20503;-73
2022/01/12 13:06:03;;;;;;;35.90;14.93;;;;;;;3.29;93.69;103196.53;6069792;28;20037;-73
2022/01/12 13:09:09;;;;;;;41.35;14.35;;;;;;;3.33;93.88;103192.09;6066873;28;20048;-73
2022/01/12 13:12:05;;;;;;;43.83;16.48;;;;;;;3.31;93.84;103207.88;6069723;28;20461;-73
2022/01/12 13:15:00;;;;;;;38.13;16.38;;;;;;;3.33;93.70;103202.56;6059299;28;20056;-74
2022/01/12 13:18:03;;;;;;;40.07;13.40;;;;;;;3.27;93.37;103202.72;6072435;28;20087;-73
2022/01/12 13:21:07;;;;;;;37.63;13.65;;;;;;;3.28;94.13;103200.06;6059757;28;20343;-72
2022/01/12 13:24:03;;;;;;;33.25;13.20;;;;;;;3.32;94.51;103199.09;6070530;28;20037;-73
2022/01/12 13:26:58;;;;;;;32.45;11.90;;;;;;;3.32;93.89;103201.72;6067729;28;20465;-72
2022/01/12 13:29:54;;;;;;;34.73;14.00;;;;;;;3.26;94.26;103193.97;6074581;28;20044;-73
2022/01/12 13:32:54;;;;;;;33.80;12.20;;;;;;;3.29;94.35;103206.19;6074772;28;20419;-73
2022/01/12 13:35:50;;;;;;;34.72;11.82;;;;;;;3.28;93.89;103205.31;6076552;28;20116;-72
2022/01/12 13:38:54;;;;;;;36.97;11.53;;;;;;;3.26;93.58;103201.00;6071994;28;20041;-73
2022/01/12 13:41:52;;;;;;;32.00;11.70;;;;;;;3.26;93.92;103209.72;6067616;28;20283;-73
2022/01/12 13:44:47;;;;;;;31.45;11.40;;;;;;;3.30;93.27;103210.50;6068333;28;20465;-73
2022/01/12 13:47:48;;;;;;;30.63;11.10;;;;;;;3.30;93.08;103211.38;6076469;28;20045;-73
2022/01/12 13:50:45;;;;;;;;;;;;;;;3.40;92.66;103210.22;6075821;28;20025;-73
2022/01/12 13:53:41;;;;;;;29.58;10.55;;;;;;;3.37;93.15;103214.72;6076204;28;19924;-74
2022/01/12 13:56:39;;;;;;;29.10;10.50;;;;;;;3.35;92.91;103221.75;6075275;28;20040;-73
2022/01/12 13:59:49;;;;;;;26.60;10.65;;;;;;;3.35;93.33;103219.97;6070600;28;20046;-75
2022/01/12 14:02:45;;;;;;;29.80;9.40;;;;;;;3.36;92.87;103229.59;6072886;28;20033;-75
2022/01/12 14:05:41;;;;;;;24.42;9.00;;;;;;;3.36;92.64;103219.09;6064447;28;20177;-74
2022/01/12 14:08:51;;;;;;;30.10;10.35;;;;;;;3.40;92.46;103225.09;6074921;28;20029;-74
2022/01/12 14:11:48;;;;;;;29.08;10.57;;;;;;;3.42;92.10;103210.22;6074219;28;20038;-74
2022/01/12 14:14:59;;;;;;;28.55;10.63;;;;;;;3.49;92.23;103214.38;6060121;28;20065;-74
2022/01/12 14:17:54;;;;;;;26.65;9.60;;;;;;;3.49;91.46;103211.78;6067837;28;20428;-74
2022/01/12 14:20:50;;;;;;;26.38;8.68;;;;;;;3.49;92.14;103215.25;6074655;28;20038;-75
2022/01/12 14:23:46;;;;;;;21.80;8.07;;;;;;;3.50;91.61;103217.00;6073025;28;20057;-74
2022/01/12 14:26:42;;;;;;;24.17;8.20;;;;;;;3.56;91.11;103216.81;6074885;28;20029;-74
2022/01/12 14:29:37;;;;;;;17.42;7.38;;;;;;;3.58;91.71;103212.41;6069299;28;20539;-74
2022/01/12 14:32:36;;;;;;;19.40;8.00;;;;;;;3.56;91.86;103214.19;6063973;28;20121;-74
2022/01/12 14:35:31;;;;;;;22.98;8.00;;;;;;;3.53;91.87;103211.63;6071535;28;20033;-74
2022/01/12 14:38:27;;;;;;;26.77;7.80;;;;;;;3.46;91.40;103209.22;6072568;28;20029;-74
2022/01/12 14:41:22;;;;;;;23.73;7.70;;;;;;;3.49;91.47;103206.53;6063574;28;20037;-74
2022/01/12 14:44:19;;;;;;;22.63;7.03;;;;;;;3.49;92.22;103194.28;6073044;28;20041;-74
2022/01/12 14:47:15;;;;;;;17.42;7.28;;;;;;;3.53;91.98;103201.16;6066730;28;20785;-74
2022/01/12 14:50:10;;;;;;;20.53;8.60;;;;;;;3.54;91.77;103200.25;6070838;28;20037;-75
2022/01/12 14:53:07;;;;;;;21.45;7.60;;;;;;;3.50;91.09;103196.00;6075057;28;20040;-75
2022/01/12 14:56:04;;;;;;;22.88;8.13;;;;;;;3.50;91.99;103203.88;6074721;28;20488;-74